Private Wetterstation Sandau
Wetterdaten: Dienstag, 04.12.2012
Datum Zeit Temp. A. Feuchte A. Luftdruck Regen Wind Richtung Richtung Taupunkt Windchill
04.12.2012 00:01 0,4 C 91 % 999,7 hPa 0,0 l/m 8,3 km/h (2 Bft) S-SO 157 -0,9 C -2,4 C
04.12.2012 00:06 0,4 C 91 % 999,6 hPa 0,0 l/m 7,2 km/h (2 Bft) SO 135 -0,9 C -2,0 C
04.12.2012 00:11 0,4 C 91 % 999,6 hPa 0,0 l/m 11,9 km/h (2 Bft) S-SO 157 -0,9 C -3,3 C
04.12.2012 00:16 0,4 C 91 % 999,6 hPa 0,0 l/m 4,7 km/h (1 Bft) S-SO 157 -0,9 C -1,0 C
04.12.2012 00:21 0,4 C 91 % 999,3 hPa 0,0 l/m 5,0 km/h (1 Bft) S-SO 157 -0,9 C -1,1 C
04.12.2012 00:26 0,4 C 91 % 999,3 hPa 0,0 l/m 12,6 km/h (3 Bft) S 180 -0,9 C -3,4 C
04.12.2012 00:31 0,4 C 91 % 999,2 hPa 0,0 l/m 21,6 km/h (4 Bft) S-SW 202 -0,9 C -5,0 C
04.12.2012 00:36 0,5 C 91 % 999,0 hPa 0,0 l/m 9,4 km/h (2 Bft) S-SW 202 -0,8 C -2,6 C
04.12.2012 00:41 0,5 C 91 % 999,0 hPa 0,0 l/m 5,4 km/h (1 Bft) S-SW 202 -0,8 C -1,2 C
04.12.2012 00:46 0,5 C 91 % 998,9 hPa 0,0 l/m 14,8 km/h (3 Bft) S 180 -0,8 C -3,8 C
04.12.2012 00:51 0,5 C 91 % 998,7 hPa 0,0 l/m 20,9 km/h (4 Bft) S 180 -0,8 C -4,7 C
04.12.2012 00:56 0,6 C 91 % 998,6 hPa 0,0 l/m 9,7 km/h (2 Bft) S-SW 202 -0,7 C -2,5 C
04.12.2012 01:01 0,6 C 91 % 998,5 hPa 0,0 l/m 8,6 km/h (2 Bft) SW 225 -0,7 C -2,2 C
04.12.2012 01:06 0,6 C 91 % 998,6 hPa 0,0 l/m 16,6 km/h (3 Bft) SW 225 -0,7 C -4,0 C
04.12.2012 01:11 0,6 C 91 % 998,5 hPa 0,0 l/m 18,4 km/h (3 Bft) SW 225 -0,7 C -4,2 C
04.12.2012 01:16 0,6 C 91 % 998,3 hPa 0,0 l/m 17,6 km/h (3 Bft) S-SW 202 -0,7 C -4,1 C
04.12.2012 01:21 0,7 C 91 % 998,2 hPa 0,0 l/m 11,2 km/h (2 Bft) S-SW 202 -0,6 C -2,8 C
04.12.2012 01:26 0,7 C 91 % 998,3 hPa 0,0 l/m 9,4 km/h (2 Bft) SW 225 -0,6 C -2,3 C
04.12.2012 01:31 0,7 C 91 % 998,4 hPa 0,0 l/m 7,6 km/h (2 Bft) S-SW 202 -0,6 C -1,8 C
04.12.2012 01:36 0,8 C 91 % 998,3 hPa 0,0 l/m 12,6 km/h (3 Bft) SW 225 -0,5 C -3,0 C
04.12.2012 01:41 0,8 C 91 % 998,2 hPa 0,0 l/m 12,2 km/h (2 Bft) S-SW 202 -0,5 C -2,9 C
04.12.2012 01:46 0,8 C 91 % 998,3 hPa 0,0 l/m 13,0 km/h (3 Bft) S-SW 202 -0,5 C -3,0 C
04.12.2012 01:51 0,8 C 91 % 998,0 hPa 0,0 l/m 11,5 km/h (2 Bft) SW 225 -0,5 C -2,7 C
04.12.2012 01:56 0,8 C 91 % 997,9 hPa 0,0 l/m 9,4 km/h (2 Bft) SW 225 -0,5 C -2,2 C
04.12.2012 02:01 0,8 C 91 % 998,0 hPa 0,0 l/m 9,4 km/h (2 Bft) S-SO 157 -0,5 C -2,2 C
04.12.2012 02:06 0,8 C 91 % 998,0 hPa 0,0 l/m 13,3 km/h (3 Bft) SW 225 -0,5 C -3,1 C
04.12.2012 02:11 0,9 C 91 % 997,9 hPa 0,0 l/m 14,0 km/h (3 Bft) S-SW 202 -0,4 C -3,1 C
04.12.2012 02:16 0,9 C 91 % 997,9 hPa 0,0 l/m 13,3 km/h (3 Bft) W-SW 247 -0,4 C -3,0 C
04.12.2012 02:21 0,9 C 91 % 997,9 hPa 0,0 l/m 9,7 km/h (2 Bft) SW 225 -0,4 C -2,2 C
04.12.2012 02:26 0,9 C 91 % 997,6 hPa 0,0 l/m 10,8 km/h (2 Bft) S 180 -0,4 C -2,4 C
04.12.2012 02:31 1,0 C 91 % 997,6 hPa 0,0 l/m 12,6 km/h (3 Bft) S-SW 202 -0,3 C -2,7 C
04.12.2012 02:36 1,1 C 91 % 997,5 hPa 0,0 l/m 10,8 km/h (2 Bft) SW 225 -0,2 C -2,2 C
04.12.2012 02:41 1,1 C 91 % 997,6 hPa 0,0 l/m 14,4 km/h (3 Bft) W-SW 247 -0,2 C -3,0 C
04.12.2012 02:46 1,2 C 91 % 997,5 hPa 0,0 l/m 9,4 km/h (2 Bft) S-SW 202 -0,1 C -1,7 C
04.12.2012 02:51 1,2 C 91 % 997,2 hPa 0,0 l/m 12,2 km/h (2 Bft) S 180 -0,1 C -2,4 C
04.12.2012 02:56 1,3 C 91 % 997,2 hPa 0,0 l/m 10,1 km/h (2 Bft) SW 225 -0,0 C -1,8 C
04.12.2012 03:01 1,3 C 91 % 997,1 hPa 0,0 l/m 11,9 km/h (2 Bft) W-SW 247 -0,0 C -2,2 C
04.12.2012 03:06 1,3 C 91 % 997,2 hPa 0,0 l/m 9,0 km/h (2 Bft) W-SW 247 -0,0 C -1,5 C
04.12.2012 03:11 1,3 C 91 % 996,9 hPa 0,0 l/m 8,6 km/h (2 Bft) SW 225 -0,0 C -1,4 C
04.12.2012 03:16 1,3 C 91 % 996,8 hPa 0,0 l/m 7,2 km/h (2 Bft) W 270 -0,0 C -1,0 C
04.12.2012 03:21 1,2 C 91 % 996,8 hPa 0,0 l/m 9,7 km/h (2 Bft) W-SW 247 -0,1 C -1,8 C
04.12.2012 03:26 1,2 C 91 % 996,8 hPa 0,0 l/m 20,9 km/h (4 Bft) W-SW 247 -0,1 C -3,9 C
04.12.2012 03:31 1,2 C 91 % 996,6 hPa 0,0 l/m 13,3 km/h (3 Bft) W-SW 247 -0,1 C -2,6 C
04.12.2012 03:36 1,2 C 92 % 996,6 hPa 0,0 l/m 8,6 km/h (2 Bft) SW 225 0,0 C -1,5 C
04.12.2012 03:41 1,2 C 92 % 996,5 hPa 0,0 l/m 8,3 km/h (2 Bft) S-SW 202 0,0 C -1,4 C
04.12.2012 03:46 1,2 C 92 % 996,5 hPa 0,0 l/m 12,2 km/h (2 Bft) S-SW 202 0,0 C -2,4 C
04.12.2012 03:51 1,2 C 92 % 996,6 hPa 0,0 l/m 4,0 km/h (1 Bft) W 270 0,0 C 1,2 C
04.12.2012 03:56 1,3 C 92 % 996,6 hPa 0,0 l/m 12,2 km/h (2 Bft) SW 225 0,1 C -2,3 C
04.12.2012 04:01 1,3 C 92 % 996,4 hPa 0,0 l/m 12,6 km/h (3 Bft) W-SW 247 0,1 C -2,4 C
04.12.2012 04:06 1,3 C 92 % 996,4 hPa 0,0 l/m 7,2 km/h (2 Bft) SW 225 0,1 C -1,0 C
04.12.2012 04:11 1,3 C 92 % 996,3 hPa 0,0 l/m 9,0 km/h (2 Bft) W 270 0,1 C -1,5 C
04.12.2012 04:16 1,5 C 92 % 996,2 hPa 0,0 l/m 11,9 km/h (2 Bft) W-SW 247 0,3 C -2,0 C
04.12.2012 04:21 1,6 C 92 % 996,3 hPa 0,0 l/m 15,5 km/h (3 Bft) W-SW 247 0,4 C -2,5 C
04.12.2012 04:26 1,8 C 92 % 996,3 hPa 0,0 l/m 5,4 km/h (1 Bft) W-SW 247 0,6 C 0,3 C
04.12.2012 04:31 1,8 C 92 % 996,3 hPa 0,0 l/m 25,6 km/h (4 Bft) W 270 0,6 C -3,7 C
04.12.2012 04:36 1,9 C 92 % 996,2 hPa 0,0 l/m 16,2 km/h (3 Bft) W 270 0,7 C -2,3 C
04.12.2012 04:41 1,9 C 92 % 996,2 hPa 0,0 l/m 3,6 km/h (1 Bft) W-SW 247 0,7 C 1,9 C
04.12.2012 04:46 1,9 C 92 % 996,3 hPa 0,0 l/m 7,9 km/h (2 Bft) SW 225 0,7 C -0,5 C
04.12.2012 04:51 2,0 C 92 % 996,1 hPa 0,0 l/m 6,5 km/h (2 Bft) W-SW 247 0,8 C 0,1 C
04.12.2012 04:56 2,1 C 92 % 996,2 hPa 0,0 l/m 11,2 km/h (2 Bft) SW 225 0,9 C -1,1 C
04.12.2012 05:01 2,1 C 92 % 996,0 hPa 0,0 l/m 9,4 km/h (2 Bft) S-SW 202 0,9 C -0,7 C
04.12.2012 05:06 2,1 C 92 % 995,9 hPa 0,0 l/m 19,1 km/h (3 Bft) W 270 0,9 C -2,5 C
04.12.2012 05:11 2,2 C 92 % 995,9 hPa 0,0 l/m 7,9 km/h (2 Bft) W-SW 247 1,0 C -0,1 C
04.12.2012 05:16 2,2 C 92 % 996,0 hPa 0,0 l/m 14,8 km/h (3 Bft) SW 225 1,0 C -1,7 C
04.12.2012 05:21 2,3 C 92 % 996,1 hPa 0,5 l/m 8,6 km/h (2 Bft) W-SW 247 1,1 C -0,2 C
04.12.2012 05:26 2,3 C 92 % 995,9 hPa 0,0 l/m 8,6 km/h (2 Bft) W-SW 247 1,1 C -0,2 C
04.12.2012 05:31 2,3 C 92 % 995,8 hPa 0,0 l/m 6,5 km/h (2 Bft) W-SW 247 1,1 C 0,4 C
04.12.2012 05:36 2,4 C 92 % 995,8 hPa 0,0 l/m 11,9 km/h (2 Bft) S-SW 202 1,2 C -0,9 C
04.12.2012 05:41 2,4 C 92 % 995,7 hPa 0,0 l/m 7,9 km/h (2 Bft) S-SW 202 1,2 C 0,1 C
04.12.2012 05:46 2,4 C 92 % 995,7 hPa 0,0 l/m 16,9 km/h (3 Bft) W-SW 247 1,2 C -1,8 C
04.12.2012 05:51 2,4 C 92 % 995,6 hPa 0,5 l/m 10,1 km/h (2 Bft) S-SW 202 1,2 C -0,5 C
04.12.2012 05:56 2,4 C 92 % 995,7 hPa 0,0 l/m 8,3 km/h (2 Bft) SW 225 1,2 C -0,0 C
04.12.2012 06:01 2,4 C 92 % 995,4 hPa 0,0 l/m 13,0 km/h (3 Bft) W-SW 247 1,2 C -1,1 C
04.12.2012 06:06 2,4 C 92 % 995,4 hPa 0,0 l/m 7,6 km/h (2 Bft) SW 225 1,2 C 0,2 C
04.12.2012 06:11 2,5 C 92 % 995,4 hPa 0,0 l/m 12,2 km/h (2 Bft) W-SW 247 1,3 C -0,8 C
04.12.2012 06:16 2,5 C 91 % 995,4 hPa 0,0 l/m 9,7 km/h (2 Bft) SW 225 1,2 C -0,3 C
04.12.2012 06:21 2,6 C 91 % 995,4 hPa 0,0 l/m 12,6 km/h (3 Bft) W 270 1,3 C -0,8 C
04.12.2012 06:26 2,6 C 91 % 995,3 hPa 0,0 l/m 14,4 km/h (3 Bft) SW 225 1,3 C -1,1 C
04.12.2012 06:31 2,6 C 91 % 995,2 hPa 0,0 l/m 9,7 km/h (2 Bft) W-SW 247 1,3 C -0,1 C
04.12.2012 06:36 2,5 C 91 % 995,3 hPa 0,0 l/m 11,2 km/h (2 Bft) SW 225 1,2 C -0,6 C
04.12.2012 06:41 2,5 C 91 % 995,1 hPa 0,0 l/m 6,1 km/h (2 Bft) SW 225 1,2 C 0,8 C
04.12.2012 06:46 2,5 C 91 % 995,1 hPa 0,0 l/m 7,2 km/h (2 Bft) SW 225 1,2 C 0,4 C
04.12.2012 06:51 2,6 C 91 % 995,1 hPa 0,0 l/m 5,0 km/h (1 Bft) S-SW 202 1,3 C 1,4 C
04.12.2012 06:56 2,7 C 91 % 995,2 hPa 0,0 l/m 11,2 km/h (2 Bft) W-SW 247 1,4 C -0,4 C
04.12.2012 07:01 2,8 C 91 % 995,2 hPa 0,0 l/m 7,9 km/h (2 Bft) W-SW 247 1,5 C 0,6 C
04.12.2012 07:06 2,8 C 91 % 995,1 hPa 0,0 l/m 11,2 km/h (2 Bft) W 270 1,5 C -0,2 C
04.12.2012 07:11 2,8 C 91 % 995,0 hPa 0,0 l/m 9,7 km/h (2 Bft) W-SW 247 1,5 C 0,1 C
04.12.2012 07:16 2,8 C 91 % 995,0 hPa 0,0 l/m 14,4 km/h (3 Bft) W-SW 247 1,5 C -0,9 C
04.12.2012 07:21 2,8 C 91 % 995,2 hPa 0,0 l/m 6,5 km/h (2 Bft) SW 225 1,5 C 1,0 C
04.12.2012 07:26 2,9 C 91 % 995,1 hPa 0,0 l/m 18,7 km/h (3 Bft) NW 315 1,6 C -1,4 C
04.12.2012 07:31 2,9 C 91 % 995,1 hPa 0,0 l/m 13,0 km/h (3 Bft) W 270 1,6 C -0,5 C
04.12.2012 07:36 2,9 C 91 % 995,0 hPa 0,0 l/m 9,4 km/h (2 Bft) S-SW 202 1,6 C 0,3 C
04.12.2012 07:41 2,9 C 91 % 995,0 hPa 0,0 l/m 7,9 km/h (2 Bft) W-SW 247 1,6 C 0,7 C
04.12.2012 07:46 2,9 C 91 % 995,0 hPa 0,0 l/m 8,6 km/h (2 Bft) W-SW 247 1,6 C 0,5 C
04.12.2012 07:51 2,9 C 91 % 995,1 hPa 0,0 l/m 8,3 km/h (2 Bft) SW 225 1,6 C 0,6 C
04.12.2012 07:56 3,0 C 91 % 995,0 hPa 0,0 l/m 11,9 km/h (2 Bft) W-SW 247 1,7 C -0,1 C
04.12.2012 08:01 3,0 C 90 % 995,2 hPa 0,0 l/m 10,8 km/h (2 Bft) SW 225 1,5 C 0,1 C
04.12.2012 08:06 3,0 C 90 % 995,1 hPa 0,0 l/m 9,7 km/h (2 Bft) W-SW 247 1,5 C 0,3 C
04.12.2012 08:11 2,9 C 90 % 995,0 hPa 0,0 l/m 11,2 km/h (2 Bft) W-SW 247 1,4 C -0,1 C
04.12.2012 08:16 3,0 C 90 % 995,1 hPa 0,0 l/m 10,4 km/h (2 Bft) W-SW 247 1,5 C 0,2 C
04.12.2012 08:21 3,0 C 90 % 995,1 hPa 0,0 l/m 7,2 km/h (2 Bft) SW 225 1,5 C 1,0 C
04.12.2012 08:26 3,1 C 90 % 995,1 hPa 0,0 l/m 7,2 km/h (2 Bft) S 180 1,6 C 1,1 C
04.12.2012 08:31 3,1 C 90 % 995,0 hPa 0,0 l/m 15,8 km/h (3 Bft) W-SW 247 1,6 C -0,7 C
04.12.2012 08:36 3,1 C 90 % 995,0 hPa 0,0 l/m 6,1 km/h (2 Bft) W-SW 247 1,6 C 1,5 C
04.12.2012 08:41 3,2 C 90 % 995,1 hPa 0,0 l/m 11,2 km/h (2 Bft) W-SW 247 1,7 C 0,2 C
04.12.2012 08:46 3,3 C 90 % 995,2 hPa 0,0 l/m 10,1 km/h (2 Bft) W-SW 247 1,8 C 0,6 C
04.12.2012 08:51 3,3 C 90 % 994,8 hPa 0,0 l/m 11,9 km/h (2 Bft) SW 225 1,8 C 0,2 C
04.12.2012 08:56 3,3 C 90 % 995,0 hPa 0,0 l/m 10,4 km/h (2 Bft) S-SW 202 1,8 C 0,5 C
04.12.2012 09:01 3,4 C 89 % 995,0 hPa 0,0 l/m 16,6 km/h (3 Bft) SW 225 1,8 C -0,5 C
04.12.2012 09:06 3,4 C 89 % 995,0 hPa 0,0 l/m 14,0 km/h (3 Bft) W 270 1,8 C -0,1 C
04.12.2012 09:11 3,4 C 89 % 995,0 hPa 0,0 l/m 5,4 km/h (1 Bft) W-SW 247 1,8 C 2,1 C
04.12.2012 09:16 3,5 C 89 % 994,8 hPa 0,0 l/m 7,6 km/h (2 Bft) W 270 1,9 C 1,5 C
04.12.2012 09:21 3,6 C 89 % 995,0 hPa 0,0 l/m 11,9 km/h (2 Bft) SW 225 2,0 C 0,6 C
04.12.2012 09:26 3,6 C 89 % 995,0 hPa 0,0 l/m 6,1 km/h (2 Bft) W-SW 247 2,0 C 2,1 C
04.12.2012 09:31 3,6 C 89 % 994,9 hPa 0,0 l/m 21,2 km/h (4 Bft) W 270 2,0 C -0,9 C
04.12.2012 09:36 3,8 C 89 % 994,9 hPa 0,0 l/m 11,2 km/h (2 Bft) W-NW 292 2,2 C 1,0 C
04.12.2012 09:41 3,8 C 88 % 994,7 hPa 0,0 l/m 6,1 km/h (2 Bft) SW 225 2,0 C 2,3 C
04.12.2012 09:46 3,8 C 88 % 994,8 hPa 0,0 l/m 7,6 km/h (2 Bft) SW 225 2,0 C 1,8 C
04.12.2012 09:51 3,8 C 88 % 994,8 hPa 0,0 l/m 9,7 km/h (2 Bft) W-SW 247 2,0 C 1,3 C
04.12.2012 09:56 3,8 C 88 % 994,8 hPa 0,0 l/m 5,0 km/h (1 Bft) W-SW 247 2,0 C 2,7 C
04.12.2012 10:01 3,8 C 88 % 994,7 hPa 0,0 l/m 10,1 km/h (2 Bft) W 270 2,0 C 1,2 C
04.12.2012 10:06 3,8 C 88 % 994,7 hPa 0,0 l/m 10,8 km/h (2 Bft) W 270 2,0 C 1,0 C
04.12.2012 10:11 3,9 C 88 % 994,7 hPa 0,0 l/m 10,1 km/h (2 Bft) SW 225 2,1 C 1,3 C
04.12.2012 10:16 3,9 C 88 % 994,6 hPa 0,0 l/m 10,1 km/h (2 Bft) SW 225 2,1 C 1,3 C
04.12.2012 10:21 3,9 C 88 % 994,7 hPa 0,0 l/m 9,4 km/h (2 Bft) W-SW 247 2,1 C 1,5 C
04.12.2012 10:26 3,9 C 87 % 994,6 hPa 0,0 l/m 7,6 km/h (2 Bft) SW 225 1,9 C 2,0 C
04.12.2012 10:31 3,9 C 87 % 994,7 hPa 0,0 l/m 19,8 km/h (3 Bft) S-SW 202 1,9 C -0,3 C
04.12.2012 10:36 3,9 C 87 % 994,7 hPa 0,0 l/m 10,8 km/h (2 Bft) W-SW 247 1,9 C 1,2 C
04.12.2012 10:41 3,9 C 87 % 994,8 hPa 0,0 l/m 14,4 km/h (3 Bft) W-SW 247 1,9 C 0,5 C
04.12.2012 10:46 4,0 C 87 % 994,8 hPa 0,0 l/m 14,8 km/h (3 Bft) SW 225 2,0 C 0,5 C
04.12.2012 10:51 3,9 C 87 % 995,0 hPa 0,0 l/m 9,0 km/h (2 Bft) W-SW 247 1,9 C 1,6 C
04.12.2012 10:56 3,9 C 87 % 994,8 hPa 0,0 l/m 15,1 km/h (3 Bft) W-SW 247 1,9 C 0,4 C
04.12.2012 11:01 3,9 C 87 % 994,7 hPa 0,0 l/m 8,6 km/h (2 Bft) W-SW 247 1,9 C 1,7 C
04.12.2012 11:06 3,8 C 87 % 994,7 hPa 0,0 l/m 11,9 km/h (2 Bft) W-SW 247 1,8 C 0,8 C
04.12.2012 11:11 3,8 C 87 % 994,6 hPa 0,0 l/m 20,9 km/h (4 Bft) W 270 1,8 C -0,6 C
04.12.2012 11:16 3,8 C 87 % 994,6 hPa 0,0 l/m 20,5 km/h (4 Bft) W-SW 247 1,8 C -0,5 C
04.12.2012 11:21 3,8 C 87 % 994,6 hPa 0,0 l/m 11,9 km/h (2 Bft) SW 225 1,8 C 0,8 C
04.12.2012 11:26 3,8 C 87 % 994,6 hPa 0,0 l/m 14,0 km/h (3 Bft) W-SW 247 1,8 C 0,4 C
04.12.2012 11:31 3,8 C 87 % 994,6 hPa 0,0 l/m 9,4 km/h (2 Bft) W-SW 247 1,8 C 1,4 C
04.12.2012 11:36 3,8 C 87 % 994,7 hPa 0,0 l/m 8,3 km/h (2 Bft) SW 225 1,8 C 1,6 C
04.12.2012 11:41 3,8 C 87 % 994,6 hPa 0,0 l/m 21,6 km/h (4 Bft) W 270 1,8 C -0,6 C
04.12.2012 11:46 3,8 C 87 % 994,5 hPa 0,0 l/m 15,8 km/h (3 Bft) SW 225 1,8 C 0,1 C
04.12.2012 11:51 3,8 C 87 % 994,4 hPa 0,0 l/m 12,2 km/h (2 Bft) W-SW 247 1,8 C 0,8 C
04.12.2012 11:56 3,7 C 87 % 994,6 hPa 0,0 l/m 14,4 km/h (3 Bft) W-SW 247 1,7 C 0,2 C
04.12.2012 12:01 3,6 C 87 % 994,4 hPa 0,0 l/m 5,8 km/h (2 Bft) W-SW 247 1,6 C 2,2 C
04.12.2012 12:06 3,6 C 87 % 994,6 hPa 0,0 l/m 9,0 km/h (2 Bft) SW 225 1,6 C 1,2 C
04.12.2012 12:11 3,8 C 87 % 994,4 hPa 0,0 l/m 15,5 km/h (3 Bft) S-SW 202 1,8 C 0,2 C
04.12.2012 12:16 3,8 C 87 % 994,4 hPa 0,0 l/m 15,8 km/h (3 Bft) SW 225 1,8 C 0,1 C
04.12.2012 12:21 3,8 C 87 % 994,4 hPa 0,0 l/m 10,4 km/h (2 Bft) W-SW 247 1,8 C 1,1 C
04.12.2012 12:26 3,8 C 87 % 994,2 hPa 0,0 l/m 11,2 km/h (2 Bft) S-SW 202 1,8 C 1,0 C
04.12.2012 12:31 3,8 C 87 % 994,4 hPa 0,0 l/m 11,2 km/h (2 Bft) S-SW 202 1,8 C 1,0 C
04.12.2012 12:36 3,9 C 87 % 994,1 hPa 0,0 l/m 14,8 km/h (3 Bft) W-SW 247 1,9 C 0,4 C
04.12.2012 12:41 3,9 C 87 % 994,3 hPa 0,0 l/m 9,0 km/h (2 Bft) W-SW 247 1,9 C 1,6 C
04.12.2012 12:46 3,9 C 87 % 994,2 hPa 0,0 l/m 12,2 km/h (2 Bft) W-SW 247 1,9 C 0,9 C
04.12.2012 12:51 3,9 C 87 % 994,1 hPa 0,0 l/m 13,7 km/h (3 Bft) SW 225 1,9 C 0,6 C
04.12.2012 12:56 4,1 C 87 % 994,1 hPa 0,0 l/m 19,1 km/h (3 Bft) SW 225 2,1 C 0,0 C
04.12.2012 13:01 4,1 C 87 % 994,1 hPa 0,0 l/m 14,8 km/h (3 Bft) W-SW 247 2,1 C 0,7 C
04.12.2012 13:06 4,1 C 87 % 994,0 hPa 0,0 l/m 9,4 km/h (2 Bft) S-SW 202 2,1 C 1,7 C
04.12.2012 13:11 4,1 C 87 % 994,0 hPa 0,0 l/m 9,4 km/h (2 Bft) W-SW 247 2,1 C 1,7 C
04.12.2012 13:16 4,3 C 86 % 994,0 hPa 0,0 l/m 10,1 km/h (2 Bft) S-SW 202 2,2 C 1,8 C
04.12.2012 13:21 4,3 C 86 % 993,9 hPa 0,0 l/m 8,6 km/h (2 Bft) W-SW 247 2,2 C 2,2 C
04.12.2012 13:26 4,4 C 86 % 993,9 hPa 0,0 l/m 10,8 km/h (2 Bft) W-SW 247 2,3 C 1,8 C
04.12.2012 13:31 4,4 C 86 % 993,8 hPa 0,0 l/m 23,0 km/h (4 Bft) W-SW 247 2,3 C -0,0 C
04.12.2012 13:36 4,4 C 85 % 993,7 hPa 0,0 l/m 11,2 km/h (2 Bft) W-SW 247 2,1 C 1,7 C
04.12.2012 13:41 4,4 C 86 % 993,7 hPa 0,0 l/m 17,3 km/h (3 Bft) SW 225 2,3 C 0,7 C
04.12.2012 13:46 4,4 C 86 % 993,7 hPa 0,0 l/m 22,3 km/h (4 Bft) W 270 2,3 C 0,0 C
04.12.2012 13:51 4,4 C 85 % 993,5 hPa 0,0 l/m 20,2 km/h (4 Bft) W-SW 247 2,1 C 0,3 C
04.12.2012 13:56 4,5 C 85 % 993,5 hPa 0,0 l/m 22,0 km/h (4 Bft) SW 225 2,2 C 0,2 C
04.12.2012 14:01 4,5 C 85 % 993,3 hPa 0,0 l/m 15,5 km/h (3 Bft) S-SW 202 2,2 C 1,1 C
04.12.2012 14:06 4,6 C 85 % 993,2 hPa 0,0 l/m 18,0 km/h (3 Bft) S 180 2,3 C 0,8 C
04.12.2012 14:11 4,6 C 85 % 993,4 hPa 0,0 l/m 9,4 km/h (2 Bft) S 180 2,3 C 2,3 C
04.12.2012 14:16 4,6 C 85 % 993,3 hPa 0,0 l/m 20,2 km/h (4 Bft) S-SW 202 2,3 C 0,5 C
04.12.2012 14:21 4,7 C 85 % 993,4 hPa 0,0 l/m 13,3 km/h (3 Bft) W-SW 247 2,4 C 1,7 C
04.12.2012 14:26 4,7 C 85 % 993,3 hPa 0,0 l/m 22,0 km/h (4 Bft) SW 225 2,4 C 0,5 C
04.12.2012 14:31 4,7 C 85 % 993,2 hPa 0,0 l/m 14,8 km/h (3 Bft) S-SW 202 2,4 C 1,4 C
04.12.2012 14:36 4,7 C 85 % 993,0 hPa 0,0 l/m 8,6 km/h (2 Bft) W-SW 247 2,4 C 2,6 C
04.12.2012 14:41 4,7 C 84 % 993,0 hPa 0,0 l/m 13,7 km/h (3 Bft) W 270 2,2 C 1,6 C
04.12.2012 14:46 4,7 C 84 % 993,2 hPa 0,0 l/m 11,9 km/h (2 Bft) W 270 2,2 C 1,9 C
04.12.2012 14:51 4,8 C 84 % 993,2 hPa 0,0 l/m 12,6 km/h (3 Bft) SW 225 2,3 C 1,9 C
04.12.2012 14:56 4,8 C 84 % 993,0 hPa 0,0 l/m 11,2 km/h (2 Bft) SW 225 2,3 C 2,2 C
04.12.2012 15:01 4,8 C 84 % 993,0 hPa 0,0 l/m 10,8 km/h (2 Bft) S-SW 202 2,3 C 2,2 C
04.12.2012 15:06 4,8 C 84 % 993,0 hPa 0,0 l/m 13,3 km/h (3 Bft) SW 225 2,3 C 1,8 C
04.12.2012 15:11 4,8 C 84 % 993,0 hPa 0,0 l/m 12,2 km/h (2 Bft) W-SW 247 2,3 C 2,0 C
04.12.2012 15:16 4,8 C 84 % 992,9 hPa 0,0 l/m 10,1 km/h (2 Bft) W-SW 247 2,3 C 2,4 C
04.12.2012 15:21 4,8 C 84 % 993,1 hPa 0,0 l/m 13,0 km/h (3 Bft) W 270 2,3 C 1,8 C
04.12.2012 15:26 4,8 C 84 % 993,0 hPa 0,0 l/m 7,6 km/h (2 Bft) W-SW 247 2,3 C 3,0 C
04.12.2012 15:31 4,8 C 84 % 993,1 hPa 0,0 l/m 8,3 km/h (2 Bft) SW 225 2,3 C 2,8 C
04.12.2012 15:36 4,8 C 84 % 992,8 hPa 0,0 l/m 22,0 km/h (4 Bft) W-SW 247 2,3 C 0,6 C
04.12.2012 15:41 4,7 C 84 % 992,9 hPa 0,0 l/m 17,6 km/h (3 Bft) W-SW 247 2,2 C 1,0 C
04.12.2012 15:46 4,7 C 84 % 992,9 hPa 0,0 l/m 10,8 km/h (2 Bft) W-SW 247 2,2 C 2,1 C
04.12.2012 15:51 4,7 C 84 % 992,8 hPa 0,0 l/m 8,3 km/h (2 Bft) SW 225 2,2 C 2,7 C
04.12.2012 15:56 4,7 C 84 % 992,8 hPa 0,0 l/m 7,2 km/h (2 Bft) W-SW 247 2,2 C 3,0 C
04.12.2012 16:01 4,7 C 84 % 992,8 hPa 0,0 l/m 5,4 km/h (1 Bft) SW 225 2,2 C 3,6 C
04.12.2012 16:06 4,7 C 84 % 992,8 hPa 0,0 l/m 13,3 km/h (3 Bft) S-SW 202 2,2 C 1,7 C
04.12.2012 16:11 4,7 C 84 % 992,8 hPa 0,0 l/m 11,9 km/h (2 Bft) S 180 2,2 C 1,9 C
04.12.2012 16:16 4,6 C 84 % 992,9 hPa 0,0 l/m 15,1 km/h (3 Bft) W-SW 247 2,1 C 1,2 C
04.12.2012 16:21 4,6 C 84 % 992,7 hPa 0,0 l/m 13,3 km/h (3 Bft) W-SW 247 2,1 C 1,5 C
04.12.2012 16:26 4,6 C 84 % 992,7 hPa 0,0 l/m 10,8 km/h (2 Bft) S-SW 202 2,1 C 2,0 C
04.12.2012 16:31 4,6 C 84 % 992,7 hPa 0,0 l/m 10,4 km/h (2 Bft) S-SW 202 2,1 C 2,1 C
04.12.2012 16:36 4,6 C 83 % 992,5 hPa 0,0 l/m 11,5 km/h (2 Bft) S-SW 202 2,0 C 1,9 C
04.12.2012 16:41 4,7 C 83 % 992,5 hPa 0,0 l/m 14,4 km/h (3 Bft) SW 225 2,1 C 1,5 C
04.12.2012 16:46 4,7 C 83 % 992,6 hPa 0,0 l/m 13,7 km/h (3 Bft) W-SW 247 2,1 C 1,6 C
04.12.2012 16:51 4,7 C 83 % 992,3 hPa 0,0 l/m 20,2 km/h (4 Bft) S-SW 202 2,1 C 0,7 C
04.12.2012 16:56 4,7 C 83 % 992,2 hPa 0,0 l/m 12,6 km/h (3 Bft) S-SW 202 2,1 C 1,8 C
04.12.2012 17:01 4,6 C 83 % 992,4 hPa 0,0 l/m 13,3 km/h (3 Bft) SW 225 2,0 C 1,5 C
04.12.2012 17:06 4,6 C 83 % 992,4 hPa 0,0 l/m 15,5 km/h (3 Bft) S-SW 202 2,0 C 1,2 C
04.12.2012 17:11 4,4 C 83 % 992,3 hPa 0,0 l/m 5,8 km/h (2 Bft) S 180 1,8 C 3,1 C
04.12.2012 17:16 4,4 C 83 % 992,3 hPa 0,0 l/m 16,2 km/h (3 Bft) SW 225 1,8 C 0,8 C
04.12.2012 17:21 4,3 C 83 % 992,2 hPa 0,0 l/m 10,8 km/h (2 Bft) S-SW 202 1,7 C 1,6 C
04.12.2012 17:26 4,2 C 84 % 991,9 hPa 0,0 l/m 10,8 km/h (2 Bft) S-SW 202 1,7 C 1,5 C
04.12.2012 17:31 4,2 C 84 % 992,0 hPa 0,0 l/m 10,4 km/h (2 Bft) S 180 1,7 C 1,6 C
04.12.2012 17:36 4,1 C 84 % 991,9 hPa 0,0 l/m 11,2 km/h (2 Bft) S 180 1,6 C 1,3 C
04.12.2012 17:41 4,1 C 84 % 992,0 hPa 0,0 l/m 7,6 km/h (2 Bft) S-SO 157 1,6 C 2,2 C
04.12.2012 17:46 4,1 C 85 % 991,8 hPa 0,0 l/m 16,9 km/h (3 Bft) SW 225 1,8 C 0,3 C
04.12.2012 17:51 4,1 C 85 % 991,9 hPa 0,0 l/m 13,0 km/h (3 Bft) SW 225 1,8 C 1,0 C
04.12.2012 17:56 4,1 C 85 % 991,8 hPa 0,0 l/m 14,8 km/h (3 Bft) S-SW 202 1,8 C 0,7 C
04.12.2012 18:01 4,2 C 85 % 991,7 hPa 0,0 l/m 9,7 km/h (2 Bft) S-SW 202 1,9 C 1,8 C
04.12.2012 18:06 4,2 C 85 % 991,6 hPa 0,0 l/m 13,7 km/h (3 Bft) W-SW 247 1,9 C 1,0 C
04.12.2012 18:11 4,2 C 85 % 991,7 hPa 0,0 l/m 15,8 km/h (3 Bft) W-SW 247 1,9 C 0,6 C
04.12.2012 18:16 4,2 C 84 % 991,6 hPa 0,0 l/m 18,0 km/h (3 Bft) SW 225 1,7 C 0,3 C
04.12.2012 18:21 4,3 C 84 % 991,6 hPa 0,0 l/m 14,0 km/h (3 Bft) S-SW 202 1,8 C 1,0 C
04.12.2012 18:26 4,3 C 84 % 991,6 hPa 0,0 l/m 13,0 km/h (3 Bft) W-SW 247 1,8 C 1,2 C
04.12.2012 18:31 4,2 C 84 % 991,7 hPa 0,0 l/m 16,9 km/h (3 Bft) SW 225 1,7 C 0,5 C
04.12.2012 18:36 4,2 C 85 % 991,8 hPa 0,0 l/m 27,7 km/h (4 Bft) W-SW 247 1,9 C -0,8 C
04.12.2012 18:41 4,2 C 85 % 991,6 hPa 0,0 l/m 21,2 km/h (4 Bft) S-SW 202 1,9 C -0,1 C
04.12.2012 18:46 4,1 C 85 % 991,5 hPa 0,0 l/m 9,0 km/h (2 Bft) SW 225 1,8 C 1,8 C
04.12.2012 18:51 4,1 C 85 % 991,4 hPa 0,0 l/m 19,1 km/h (3 Bft) S-SW 202 1,8 C 0,0 C
04.12.2012 18:56 4,1 C 85 % 991,5 hPa 0,0 l/m 10,1 km/h (2 Bft) W-SW 247 1,8 C 1,6 C
04.12.2012 19:01 3,9 C 85 % 991,4 hPa 0,0 l/m 7,6 km/h (2 Bft) S-SW 202 1,6 C 2,0 C
04.12.2012 19:06 3,9 C 85 % 991,3 hPa 0,0 l/m 8,6 km/h (2 Bft) W-SW 247 1,6 C 1,7 C
04.12.2012 19:11 3,9 C 86 % 991,3 hPa 0,0 l/m 8,6 km/h (2 Bft) SW 225 1,8 C 1,7 C
04.12.2012 19:16 3,8 C 86 % 991,2 hPa 0,0 l/m 19,1 km/h (3 Bft) S-SW 202 1,7 C -0,3 C
04.12.2012 19:21 3,8 C 86 % 991,1 hPa 0,0 l/m 12,6 km/h (3 Bft) SW 225 1,7 C 0,7 C
04.12.2012 19:26 3,8 C 87 % 991,1 hPa 0,0 l/m 13,0 km/h (3 Bft) S-SW 202 1,8 C 0,6 C
04.12.2012 19:31 3,8 C 87 % 991,1 hPa 0,0 l/m 13,7 km/h (3 Bft) SW 225 1,8 C 0,5 C
04.12.2012 19:36 3,7 C 87 % 991,1 hPa 0,0 l/m 19,4 km/h (3 Bft) SW 225 1,7 C -0,5 C
04.12.2012 19:41 3,6 C 87 % 991,0 hPa 0,0 l/m 13,7 km/h (3 Bft) W-SW 247 1,6 C 0,2 C
04.12.2012 19:46 3,6 C 87 % 991,0 hPa 0,5 l/m 14,4 km/h (3 Bft) W 270 1,6 C 0,1 C
04.12.2012 19:51 3,6 C 88 % 991,0 hPa 0,0 l/m 20,2 km/h (4 Bft) W-SW 247 1,8 C -0,7 C
04.12.2012 19:56 3,6 C 88 % 991,0 hPa 0,0 l/m 11,9 km/h (2 Bft) SW 225 1,8 C 0,6 C
04.12.2012 20:01 3,6 C 88 % 991,1 hPa 0,0 l/m 15,1 km/h (3 Bft) S-SW 202 1,8 C 0,0 C
04.12.2012 20:06 3,6 C 89 % 991,1 hPa 0,0 l/m 8,3 km/h (2 Bft) W-SW 247 2,0 C 1,4 C
04.12.2012 20:11 3,5 C 89 % 991,1 hPa 0,0 l/m 14,0 km/h (3 Bft) S-SW 202 1,9 C 0,1 C
04.12.2012 20:16 3,5 C 89 % 991,0 hPa 0,0 l/m 6,8 km/h (2 Bft) W 270 1,9 C 1,7 C
04.12.2012 20:21 3,5 C 89 % 991,1 hPa 0,0 l/m 7,9 km/h (2 Bft) W 270 1,9 C 1,4 C
04.12.2012 20:26 3,5 C 89 % 991,1 hPa 0,0 l/m 10,1 km/h (2 Bft) W-SW 247 1,9 C 0,8 C
04.12.2012 20:31 3,5 C 89 % 991,0 hPa 0,0 l/m 11,2 km/h (2 Bft) W-SW 247 1,9 C 0,6 C
04.12.2012 20:36 3,5 C 89 % 991,0 hPa 0,0 l/m 18,4 km/h (3 Bft) W 270 1,9 C -0,6 C
04.12.2012 20:41 3,4 C 90 % 991,2 hPa 0,5 l/m 13,3 km/h (3 Bft) W-SW 247 1,9 C 0,1 C
04.12.2012 20:46 3,4 C 90 % 991,2 hPa 0,0 l/m 10,1 km/h (2 Bft) S-SW 202 1,9 C 0,7 C
04.12.2012 20:51 3,4 C 90 % 991,1 hPa 0,0 l/m 10,1 km/h (2 Bft) W-NW 292 1,9 C 0,7 C
04.12.2012 20:56 3,4 C 90 % 991,2 hPa 0,0 l/m 9,7 km/h (2 Bft) W 270 1,9 C 0,8 C
04.12.2012 21:01 3,4 C 90 % 991,2 hPa 0,0 l/m 13,3 km/h (3 Bft) W 270 1,9 C 0,1 C
04.12.2012 21:06 3,4 C 91 % 991,2 hPa 0,0 l/m 26,6 km/h (4 Bft) W 270 2,1 C -1,7 C
04.12.2012 21:11 3,4 C 91 % 991,2 hPa 0,0 l/m 13,3 km/h (3 Bft) W 270 2,1 C 0,1 C
04.12.2012 21:16 3,5 C 91 % 991,3 hPa 0,0 l/m 4,3 km/h (1 Bft) W 270 2,2 C 3,5 C
04.12.2012 21:21 3,5 C 91 % 991,4 hPa 0,0 l/m 11,5 km/h (2 Bft) W 270 2,2 C 0,5 C
04.12.2012 21:26 3,5 C 91 % 991,5 hPa 0,0 l/m 8,3 km/h (2 Bft) W 270 2,2 C 1,3 C
04.12.2012 21:31 3,5 C 91 % 991,4 hPa 0,0 l/m 6,8 km/h (2 Bft) W-NW 292 2,2 C 1,7 C
04.12.2012 21:36 3,5 C 91 % 991,5 hPa 0,0 l/m 13,7 km/h (3 Bft) W-NW 292 2,2 C 0,1 C
04.12.2012 21:41 3,6 C 91 % 991,8 hPa 0,0 l/m 11,9 km/h (2 Bft) W-NW 292 2,3 C 0,6 C
04.12.2012 21:46 3,5 C 91 % 991,8 hPa 0,0 l/m 17,3 km/h (3 Bft) W-NW 292 2,2 C -0,5 C
04.12.2012 21:51 3,4 C 91 % 992,0 hPa 0,0 l/m 9,0 km/h (2 Bft) NW 315 2,1 C 1,0 C
04.12.2012 21:56 3,1 C 90 % 992,2 hPa 0,0 l/m 15,5 km/h (3 Bft) N-NW 337 1,6 C -0,7 C
04.12.2012 22:01 2,9 C 90 % 992,2 hPa 0,0 l/m 14,4 km/h (3 Bft) N 360 1,4 C -0,7 C
04.12.2012 22:06 2,6 C 90 % 992,4 hPa 0,0 l/m 6,5 km/h (2 Bft) N 360 1,1 C 0,8 C
04.12.2012 22:11 2,3 C 89 % 992,5 hPa 0,0 l/m 19,1 km/h (3 Bft) N-NO 22 0,7 C -2,2 C
04.12.2012 22:16 2,1 C 89 % 992,6 hPa 0,0 l/m 20,9 km/h (4 Bft) N 360 0,5 C -2,7 C
04.12.2012 22:21 1,9 C 89 % 992,9 hPa 0,0 l/m 16,2 km/h (3 Bft) N-NO 22 0,3 C -2,3 C
04.12.2012 22:26 1,8 C 89 % 992,9 hPa 0,0 l/m 9,4 km/h (2 Bft) NO 45 0,2 C -1,0 C
04.12.2012 22:31 1,6 C 89 % 992,9 hPa 0,0 l/m 20,9 km/h (4 Bft) N 360 -0,0 C -3,3 C
04.12.2012 22:36 1,5 C 90 % 993,0 hPa 0,0 l/m 4,7 km/h (1 Bft) N-NO 22 0,0 C 0,2 C
04.12.2012 22:41 1,4 C 90 % 993,3 hPa 0,0 l/m 6,5 km/h (2 Bft) N 360 -0,1 C -0,6 C
04.12.2012 22:46 1,4 C 90 % 993,4 hPa 0,0 l/m 14,8 km/h (3 Bft) NW 315 -0,1 C -2,7 C
04.12.2012 22:51 1,4 C 90 % 993,5 hPa 0,0 l/m 11,5 km/h (2 Bft) N-NW 337 -0,1 C -2,0 C
04.12.2012 22:56 1,3 C 90 % 993,6 hPa 0,0 l/m 6,5 km/h (2 Bft) N-NO 22 -0,2 C -0,7 C
04.12.2012 23:01 1,3 C 90 % 993,7 hPa 0,0 l/m 7,6 km/h (2 Bft) NW 315 -0,2 C -1,1 C
04.12.2012 23:06 1,3 C 91 % 993,8 hPa 0,0 l/m 15,1 km/h (3 Bft) NW 315 -0,0 C -2,8 C
04.12.2012 23:11 1,3 C 91 % 993,9 hPa 0,0 l/m 7,2 km/h (2 Bft) N-NW 337 -0,0 C -1,0 C
04.12.2012 23:16 1,3 C 91 % 994,0 hPa 0,0 l/m 7,6 km/h (2 Bft) N-NW 337 -0,0 C -1,1 C
04.12.2012 23:21 1,3 C 91 % 994,2 hPa 0,0 l/m 6,1 km/h (2 Bft) N-NO 22 -0,0 C -0,6 C
04.12.2012 23:26 1,3 C 91 % 994,1 hPa 0,0 l/m 4,3 km/h (1 Bft) W-NW 292 -0,0 C 1,3 C
04.12.2012 23:31 1,3 C 91 % 994,3 hPa 0,0 l/m 6,5 km/h (2 Bft) W 270 -0,0 C -0,7 C
04.12.2012 23:36 1,3 C 91 % 994,4 hPa 0,0 l/m 6,1 km/h (2 Bft) W-NW 292 -0,0 C -0,6 C
04.12.2012 23:41 1,3 C 91 % 994,4 hPa 0,0 l/m 13,3 km/h (3 Bft) W-NW 292 -0,0 C -2,5 C
04.12.2012 23:46 1,3 C 91 % 994,4 hPa 0,0 l/m 11,9 km/h (2 Bft) W-NW 292 -0,0 C -2,2 C
04.12.2012 23:51 1,3 C 91 % 994,6 hPa 0,0 l/m 9,7 km/h (2 Bft) W-NW 292 -0,0 C -1,7 C
04.12.2012 23:56 1,3 C 91 % 994,6 hPa 0,0 l/m 4,3 km/h (1 Bft) W-NW 292 -0,0 C 1,3 C
_ Min-Zeit 00:01 16:36 19:41 - 04:41 - - 00:01 00:31
Minimum _ 0,4 C 83 % 991,0 hPa - 3,6 km/h (1 Bft) - - -0,9 C -5,0 C
_ Max-Zeit 14:51 03:36 00:01 05:21 18:36 - - 14:21 16:01
Maximum _ 4,8 C 92 % 999,7 hPa 0,5 l/m 27,7 km/h
W-SW (4 Bft)
- - 2,4 C 3,6 C
Durchschnitt _ 3,0 C 89 % 994,4 hPa #2,1 l/m 11,9 km/h (2 Bft) W-SW - 1,3 C 0,0 C
(c) by David Heller